Time;durP1;ratioP1;P1;durP2;ratioP2;P2;SDS_P1;SDS_P2;PMS_P1;PMS_P2;Temp;Humidity;BMP_temperature;BMP_pressure;BME280_temperature;BME280_humidity;BME280_pressure;Samples;Min_cycle;Max_cycle;Signal;HPM_P1;HPM_P2
2023/04/11 00:00:26;;;;;;;17.30;10.27;;;;;;;8.34;93.67;94927.72;5006306;28;20241;-75
2023/04/11 00:02:53;;;;;;;15.43;9.93;;;;;;;8.32;93.00;94922.69;5014866;28;20238;-75
2023/04/11 00:05:19;;;;;;;16.03;9.80;;;;;;;8.28;93.64;94923.25;5037727;28;20230;-75
2023/04/11 00:07:45;;;;;;;15.20;9.60;;;;;;;8.26;93.78;94915.63;5024922;28;20248;-75
2023/04/11 00:10:10;;;;;;;15.87;9.80;;;;;;;8.30;93.92;94910.84;5014437;28;20771;-74
2023/04/11 00:12:36;;;;;;;16.13;9.93;;;;;;;8.23;93.92;94912.53;5013764;28;20696;-75
2023/04/11 00:15:02;;;;;;;16.63;10.53;;;;;;;8.26;93.89;94914.78;5006769;28;20241;-75
2023/04/11 00:17:30;;;;;;;15.73;9.60;;;;;;;8.28;93.51;94912.81;5017748;28;20237;-75
2023/04/11 00:19:56;;;;;;;15.77;9.50;;;;;;;8.20;93.71;94903.28;5001905;28;20597;-75
2023/04/11 00:22:23;;;;;;;15.93;9.97;;;;;;;8.15;94.12;94905.63;5030813;28;20226;-75
2023/04/11 00:24:49;;;;;;;16.87;9.60;;;;;;;8.29;93.73;94912.63;5012424;28;20233;-75
2023/04/11 00:27:14;;;;;;;16.70;9.90;;;;;;;8.22;94.17;94908.31;5013031;28;20304;-75
2023/04/11 00:29:40;;;;;;;14.77;9.37;;;;;;;8.25;93.80;94906.16;5007664;28;20601;-74
2023/04/11 00:32:05;;;;;;;18.00;9.80;;;;;;;8.13;94.25;94907.63;5030041;28;20260;-75
2023/04/11 00:34:31;;;;;;;15.30;9.63;;;;;;;8.17;94.17;94903.66;5006727;28;20672;-75
2023/04/11 00:36:56;;;;;;;17.00;10.13;;;;;;;8.17;94.31;94908.88;5003528;28;20642;-75
2023/04/11 00:39:22;;;;;;;16.53;9.87;;;;;;;8.19;94.36;94906.09;4994076;28;20226;-74
2023/04/11 00:41:47;;;;;;;15.83;9.90;;;;;;;8.18;94.80;94907.88;5028921;28;20229;-74
2023/04/11 00:44:13;;;;;;;17.40;10.10;;;;;;;8.11;95.43;94907.00;5015000;28;20316;-74
2023/04/11 00:46:40;;;;;;;16.63;10.13;;;;;;;8.05;94.81;94910.34;5005527;28;20241;-74
2023/04/11 00:49:06;;;;;;;16.67;9.80;;;;;;;8.10;95.15;94905.38;5019365;28;20275;-74
2023/04/11 00:51:32;;;;;;;17.03;9.70;;;;;;;8.19;94.98;94900.88;5008434;28;20292;-74
2023/04/11 00:53:57;;;;;;;18.87;10.37;;;;;;;8.24;94.26;94908.97;5003535;28;20234;-75
2023/04/11 00:56:23;;;;;;;15.87;10.10;;;;;;;8.25;94.63;94903.53;5014173;28;20294;-75
2023/04/11 00:58:48;;;;;;;17.40;10.93;;;;;;;8.11;94.57;94894.78;5016463;28;20276;-75
2023/04/11 01:01:15;;;;;;;16.07;10.27;;;;;;;8.15;94.23;94901.25;5003399;28;20256;-75
2023/04/11 01:03:40;;;;;;;17.13;10.13;;;;;;;8.24;94.16;94901.91;5007693;28;20241;-75
2023/04/11 01:06:10;;;;;;;17.90;10.73;;;;;;;8.21;94.13;94910.13;5019900;28;20276;-74
2023/04/11 01:08:36;;;;;;;17.83;10.23;;;;;;;8.12;95.02;94904.22;5005554;28;20691;-75
2023/04/11 01:11:01;;;;;;;17.50;10.30;;;;;;;8.13;95.04;94913.66;5004611;28;20230;-75
2023/04/11 01:13:28;;;;;;;15.90;10.03;;;;;;;8.11;94.66;94909.63;5006596;28;20229;-75
2023/04/11 01:15:54;;;;;;;17.50;10.47;;;;;;;8.16;95.14;94909.88;5027348;28;20856;-75
2023/04/11 01:18:19;;;;;;;19.23;10.50;;;;;;;8.17;94.26;94908.09;5010493;28;20249;-75
2023/04/11 01:20:45;;;;;;;19.90;11.10;;;;;;;7.98;95.40;94905.06;5018262;28;20225;-75
2023/04/11 01:23:10;;;;;;;17.53;10.43;;;;;;;8.07;95.34;94913.59;5011905;28;20225;-75
2023/04/11 01:25:36;;;;;;;17.87;10.70;;;;;;;8.14;95.34;94906.66;5015717;28;20240;-75
2023/04/11 01:28:02;;;;;;;17.67;10.47;;;;;;;8.13;94.47;94903.22;5016752;28;20261;-75
2023/04/11 01:30:27;;;;;;;17.80;10.67;;;;;;;8.20;94.74;94899.88;4999246;28;20309;-75
2023/04/11 01:32:53;;;;;;;17.17;10.60;;;;;;;8.22;94.53;94900.47;5000030;28;20303;-75
2023/04/11 01:35:18;;;;;;;20.27;11.00;;;;;;;8.23;94.02;94900.31;5014940;28;20242;-75
2023/04/11 01:37:44;;;;;;;18.37;10.93;;;;;;;8.15;95.07;94895.22;5024316;28;20773;-75
2023/04/11 01:40:09;;;;;;;19.80;10.77;;;;;;;8.10;94.69;94895.78;5028352;28;20236;-75
2023/04/11 01:42:36;;;;;;;16.80;10.47;;;;;;;8.17;95.02;94895.81;5005087;28;20237;-75
2023/04/11 01:45:03;;;;;;;18.83;10.73;;;;;;;8.09;94.34;94902.00;5020495;28;20234;-75
2023/04/11 01:47:28;;;;;;;19.27;11.17;;;;;;;8.23;94.46;94892.50;5047868;28;20323;-75
2023/04/11 01:49:54;;;;;;;17.30;10.70;;;;;;;8.23;94.41;94883.88;5014463;28;20711;-75
2023/04/11 01:52:20;;;;;;;18.73;11.20;;;;;;;8.07;94.50;94883.09;5021907;28;20241;-74
2023/04/11 01:54:46;;;;;;;18.93;10.80;;;;;;;8.00;94.87;94884.84;5015772;28;20241;-75
2023/04/11 01:57:11;;;;;;;17.60;10.33;;;;;;;8.05;94.95;94884.28;5030018;28;20232;-74
2023/04/11 01:59:36;;;;;;;18.53;10.87;;;;;;;8.10;95.12;94882.75;5017976;28;20242;-75
2023/04/11 02:02:02;;;;;;;18.63;10.87;;;;;;;8.08;94.79;94887.34;5014297;28;20731;-75
2023/04/11 02:04:28;;;;;;;18.27;11.10;;;;;;;8.10;94.54;94885.34;5016302;28;20725;-74
2023/04/11 02:06:53;;;;;;;19.20;10.70;;;;;;;7.98;94.06;94879.00;5011655;28;20758;-74
2023/04/11 02:09:19;;;;;;;18.70;10.60;;;;;;;7.97;94.77;94881.81;5012488;28;20272;-74
2023/04/11 02:11:44;;;;;;;19.37;11.40;;;;;;;7.87;94.92;94889.09;5014035;28;20249;-75
2023/04/11 02:14:13;;;;;;;17.43;11.03;;;;;;;7.90;94.80;94880.94;4996382;28;20226;-75
2023/04/11 02:16:54;;;;;;;22.57;11.23;;;;;;;7.74;95.40;94891.56;5012179;28;20261;-74
2023/04/11 02:19:21;;;;;;;22.23;11.33;;;;;;;7.84;94.92;94885.06;5013260;28;20316;-75
2023/04/11 02:21:46;;;;;;;20.33;11.23;;;;;;;7.83;95.17;94893.06;5019493;28;20785;-74
2023/04/11 02:24:12;;;;;;;20.40;11.37;;;;;;;7.94;94.94;94890.78;5015602;28;20291;-75
2023/04/11 02:26:39;;;;;;;23.23;12.17;;;;;;;7.96;94.73;94888.81;5018482;28;20372;-73
2023/04/11 02:29:05;;;;;;;20.03;11.70;;;;;;;8.06;93.80;94889.31;5019253;28;20371;-74
2023/04/11 02:31:30;;;;;;;25.27;12.50;;;;;;;8.00;94.88;94891.88;5002737;28;20233;-75
2023/04/11 02:33:56;;;;;;;21.70;12.20;;;;;;;7.88;95.42;94893.34;5036941;28;20463;-75
2023/04/11 02:36:21;;;;;;;22.47;12.07;;;;;;;7.89;94.45;94884.50;5016365;28;20238;-74
2023/04/11 02:38:47;;;;;;;22.60;12.23;;;;;;;7.92;95.15;94887.56;5006987;28;20330;-74
2023/04/11 02:41:12;;;;;;;22.73;12.80;;;;;;;7.79;94.31;94887.41;5002910;28;20242;-74
2023/04/11 02:43:38;;;;;;;24.47;12.27;;;;;;;7.83;94.90;94880.81;5025270;28;20225;-75
2023/04/11 02:46:05;;;;;;;24.53;12.70;;;;;;;7.97;94.75;94889.63;5031764;28;20237;-74
2023/04/11 02:48:31;;;;;;;22.47;12.43;;;;;;;8.00;94.24;94884.03;5015565;28;20702;-74
2023/04/11 02:50:56;;;;;;;24.10;12.37;;;;;;;7.95;94.14;94878.56;5018032;28;20226;-74
2023/04/11 02:53:22;;;;;;;23.17;12.87;;;;;;;7.89;94.87;94874.09;5003624;28;20234;-74
2023/04/11 02:55:47;;;;;;;24.60;12.93;;;;;;;7.94;94.80;94871.75;5016201;28;20238;-74
2023/04/11 02:58:16;;;;;;;21.67;12.23;;;;;;;7.84;94.68;94872.03;5007984;28;20318;-74
2023/04/11 03:00:42;;;;;;;25.27;13.10;;;;;;;7.82;93.64;94868.81;5024604;28;20842;-75
2023/04/11 03:03:08;;;;;;;23.47;13.00;;;;;;;7.84;94.40;94868.63;5030812;28;20232;-75
2023/04/11 03:05:34;;;;;;;22.87;12.53;;;;;;;7.79;94.29;94869.16;5018164;28;20234;-74
2023/04/11 03:07:59;;;;;;;24.30;12.80;;;;;;;7.84;94.92;94866.81;5017135;28;20309;-74
2023/04/11 03:10:25;;;;;;;24.63;13.27;;;;;;;7.70;94.41;94874.66;5018750;28;20230;-74
2023/04/11 03:12:50;;;;;;;23.97;13.37;;;;;;;7.84;94.55;94866.00;5022269;28;20260;-74
2023/04/11 03:15:16;;;;;;;24.30;13.30;;;;;;;7.87;94.07;94866.47;5017818;28;20233;-73
2023/04/11 03:17:41;;;;;;;29.83;13.37;;;;;;;7.87;94.19;94870.84;5018549;28;20309;-73
2023/04/11 03:20:10;;;;;;;26.33;13.93;;;;;;;7.90;93.98;94868.72;5018012;28;20226;-73
2023/04/11 03:22:37;;;;;;;24.13;13.43;;;;;;;7.90;93.77;94873.91;5033355;28;20233;-72
2023/04/11 03:25:02;;;;;;;23.60;13.20;;;;;;;7.89;93.78;94867.09;5015670;28;20324;-74
2023/04/11 03:27:28;;;;;;;27.13;14.13;;;;;;;7.70;93.86;94869.47;4991069;28;20781;-73
2023/04/11 03:29:54;;;;;;;26.57;14.27;;;;;;;7.72;94.40;94870.06;5043514;28;20237;-74
2023/04/11 03:32:19;;;;;;;26.30;14.00;;;;;;;7.80;93.96;94873.41;5013077;28;20237;-74
2023/04/11 03:34:45;;;;;;;26.63;13.97;;;;;;;7.83;93.92;94867.03;5004528;28;20253;-74
2023/04/11 03:37:10;;;;;;;27.40;14.17;;;;;;;7.74;93.94;94865.53;4999483;28;20261;-74
2023/04/11 03:39:36;;;;;;;28.33;14.40;;;;;;;7.74;93.70;94868.91;4997523;28;20231;-75
2023/04/11 03:42:01;;;;;;;27.13;14.53;;;;;;;7.79;93.42;94866.56;5010661;28;20229;-75
2023/04/11 03:44:27;;;;;;;26.10;14.47;;;;;;;7.75;93.49;94869.72;5021731;28;20320;-74
2023/04/11 03:46:52;;;;;;;27.53;14.30;;;;;;;7.73;93.89;94862.09;5028804;28;20245;-73
2023/04/11 03:49:18;;;;;;;25.90;14.83;;;;;;;7.76;94.16;94861.72;5007228;28;20264;-75
2023/04/11 03:51:43;;;;;;;26.77;14.33;;;;;;;7.60;94.47;94868.94;5029879;28;20268;-74
2023/04/11 03:54:09;;;;;;;28.90;15.30;;;;;;;7.53;94.42;94866.25;5016693;28;20241;-73
2023/04/11 03:56:34;;;;;;;27.53;15.27;;;;;;;7.74;93.29;94868.91;5018080;28;20300;-75
2023/04/11 03:59:07;;;;;;;30.40;14.53;;;;;;;7.62;93.34;94864.38;5013081;28;20287;-76
2023/04/11 04:01:36;;;;;;;29.20;15.37;;;;;;;7.69;94.17;94863.44;5017487;28;20240;-75
2023/04/11 04:04:06;;;;;;;28.70;15.27;;;;;;;7.76;93.25;94872.13;5015827;28;20289;-74
2023/04/11 04:06:31;;;;;;;25.80;14.67;;;;;;;7.73;93.04;94872.53;5017553;28;20236;-75
2023/04/11 04:08:58;;;;;;;31.50;15.20;;;;;;;7.64;93.18;94871.03;5039395;28;20229;-75
2023/04/11 04:11:24;;;;;;;29.63;15.63;;;;;;;7.67;93.82;94881.06;5014358;28;20237;-74
2023/04/11 04:13:50;;;;;;;29.57;15.70;;;;;;;7.64;93.42;94865.81;5017912;28;20236;-74
2023/04/11 04:16:16;;;;;;;29.27;14.90;;;;;;;7.64;93.35;94871.03;5033133;28;20797;-74
2023/04/11 04:18:42;;;;;;;29.50;15.87;;;;;;;7.55;93.43;94868.69;5030037;28;20227;-74
2023/04/11 04:21:07;;;;;;;30.27;16.30;;;;;;;7.56;93.74;94873.72;5026872;28;20277;-73
2023/04/11 04:23:34;;;;;;;27.93;15.13;;;;;;;7.63;93.96;94866.78;5018572;28;20238;-74
2023/04/11 04:26:01;;;;;;;29.73;15.73;;;;;;;7.60;93.33;94866.31;4996098;28;20223;-74
2023/04/11 04:28:27;;;;;;;30.13;16.30;;;;;;;7.54;93.58;94860.06;5013106;28;20238;-74
2023/04/11 04:30:56;;;;;;;33.03;16.00;;;;;;;7.59;93.97;94867.34;5019835;28;20745;-74
2023/04/11 04:33:22;;;;;;;31.20;15.73;;;;;;;7.61;93.80;94860.16;4996734;28;20305;-74
2023/04/11 04:35:50;;;;;;;29.90;15.67;;;;;;;7.61;93.91;94866.16;5002752;28;20225;-74
2023/04/11 04:38:19;;;;;;;29.53;16.17;;;;;;;7.69;93.81;94867.88;5001809;28;20241;-74
2023/04/11 04:40:44;;;;;;;31.47;16.80;;;;;;;7.59;93.25;94868.16;5044233;28;20234;-74
2023/04/11 04:43:17;;;;;;;30.67;16.67;;;;;;;7.61;93.71;94865.34;5021763;28;20241;-73
2023/04/11 04:45:44;;;;;;;30.57;16.07;;;;;;;7.46;94.01;94867.97;5019903;28;20256;-74
2023/04/11 04:48:11;;;;;;;29.87;16.43;;;;;;;7.54;93.86;94861.88;5014031;28;20276;-74
2023/04/11 04:50:37;;;;;;;32.43;16.67;;;;;;;7.50;93.99;94853.59;5016826;28;20233;-75
2023/04/11 04:53:03;;;;;;;33.40;16.33;;;;;;;7.57;93.68;94853.69;5034569;28;21017;-74
2023/04/11 04:55:29;;;;;;;30.43;16.43;;;;;;;7.66;93.86;94857.81;5011472;28;21068;-74
2023/04/11 04:57:54;;;;;;;32.63;17.17;;;;;;;7.55;93.91;94850.47;5030042;28;20239;-75
2023/04/11 05:00:20;;;;;;;33.87;17.77;;;;;;;7.55;94.04;94851.25;5003101;28;20246;-75
2023/04/11 05:02:46;;;;;;;31.83;17.13;;;;;;;7.54;93.13;94854.06;5009505;28;20213;-74
2023/04/11 05:05:12;;;;;;;32.77;17.67;;;;;;;7.55;93.51;94856.47;5014655;28;20249;-75
2023/04/11 05:07:47;;;;;;;36.77;18.43;;;;;;;7.58;93.80;94858.72;5013282;28;20248;-74
2023/04/11 05:10:12;;;;;;;31.10;17.30;;;;;;;7.57;93.36;94853.69;4996435;28;20244;-75
2023/04/11 05:12:38;;;;;;;34.23;17.50;;;;;;;7.52;93.46;94858.63;5012673;28;20345;-73
2023/04/11 05:15:10;;;;;;;34.30;17.50;;;;;;;7.51;93.47;94857.81;5011578;28;20806;-73
2023/04/11 05:17:36;;;;;;;32.77;17.00;;;;;;;7.65;92.49;94850.97;5021941;28;20226;-74
2023/04/11 05:20:04;;;;;;;32.50;17.43;;;;;;;7.64;93.16;94863.22;5019013;28;20237;-75
2023/04/11 05:22:33;;;;;;;32.33;17.30;;;;;;;7.75;91.90;94849.69;4993343;28;20270;-74
2023/04/11 05:24:58;;;;;;;32.83;17.27;;;;;;;7.82;91.88;94847.16;5014075;28;20229;-74
2023/04/11 05:27:24;;;;;;;33.83;16.83;;;;;;;7.76;92.46;94855.72;5029796;28;20233;-75
2023/04/11 05:29:50;;;;;;;31.53;16.60;;;;;;;7.79;92.35;94850.94;5028657;28;20993;-74
2023/04/11 05:32:21;;;;;;;32.17;16.87;;;;;;;7.92;91.26;94850.28;5010757;28;20233;-75
2023/04/11 05:34:51;;;;;;;35.13;17.27;;;;;;;7.93;91.43;94850.06;5008494;28;20220;-74
2023/04/11 05:37:20;;;;;;;31.00;16.50;;;;;;;7.90;90.35;94858.28;5022012;28;20304;-75
2023/04/11 05:39:48;;;;;;;33.07;17.23;;;;;;;7.99;90.79;94843.31;5015056;28;20239;-73
2023/04/11 05:42:16;;;;;;;32.53;16.80;;;;;;;8.06;90.62;94854.63;5044294;28;20240;-74
2023/04/11 05:44:42;;;;;;;32.13;16.67;;;;;;;8.13;90.64;94845.06;5012745;28;20760;-74
2023/04/11 05:47:07;;;;;;;32.90;16.70;;;;;;;8.18;90.32;94845.31;5011148;28;20230;-73
2023/04/11 05:49:33;;;;;;;31.10;16.27;;;;;;;8.14;89.79;94844.09;5036210;28;20233;-73
2023/04/11 05:51:58;;;;;;;30.00;16.13;;;;;;;8.28;88.87;94837.22;5026544;28;20225;-74
2023/04/11 05:54:31;;;;;;;30.93;16.70;;;;;;;8.41;89.13;94834.72;5022702;28;20237;-73
2023/04/11 05:56:57;;;;;;;31.00;15.83;;;;;;;8.45;88.82;94834.16;5034037;28;21307;-73
2023/04/11 05:59:22;;;;;;;31.87;16.50;;;;;;;8.64;87.38;94840.53;5030097;28;20245;-74
2023/04/11 06:01:49;;;;;;;30.10;15.67;;;;;;;8.63;87.62;94837.09;5004359;28;20365;-73
2023/04/11 06:04:15;;;;;;;29.63;16.03;;;;;;;8.84;87.19;94836.25;5003162;28;20225;-74
2023/04/11 06:06:41;;;;;;;28.87;15.37;;;;;;;8.75;86.96;94826.94;5001740;28;20221;-74
2023/04/11 06:09:08;;;;;;;25.30;14.37;;;;;;;8.69;87.20;94835.56;5013930;28;20222;-74
2023/04/11 06:11:34;;;;;;;27.53;14.63;;;;;;;8.68;86.77;94823.50;5015788;28;20302;-75
2023/04/11 06:14:00;;;;;;;27.37;15.67;;;;;;;8.77;87.19;94817.94;5032261;28;20678;-75
2023/04/11 06:16:25;;;;;;;26.33;14.70;;;;;;;8.81;86.45;94823.59;5015482;28;20320;-75
2023/04/11 06:18:51;;;;;;;26.97;14.73;;;;;;;8.58;86.27;94817.78;5015794;28;20298;-76
2023/04/11 06:21:17;;;;;;;27.37;15.10;;;;;;;8.90;86.56;94825.06;5008028;28;20234;-76
2023/04/11 06:23:42;;;;;;;24.63;14.30;;;;;;;8.86;86.16;94818.59;4999417;28;20305;-74
2023/04/11 06:26:08;;;;;;;25.97;14.47;;;;;;;9.11;85.96;94819.75;5014134;28;20605;-75
2023/04/11 06:28:36;;;;;;;25.67;14.33;;;;;;;9.00;85.37;94815.09;5028046;28;20296;-74
2023/04/11 06:31:02;;;;;;;28.67;14.33;;;;;;;9.16;85.40;94817.38;4994331;28;20233;-76
2023/04/11 06:33:30;;;;;;;23.77;13.47;;;;;;;8.96;85.81;94813.84;5016888;28;20252;-75
2023/04/11 06:35:56;;;;;;;24.97;12.93;;;;;;;9.03;85.79;94813.91;5015807;28;20260;-74
2023/04/11 06:38:22;;;;;;;24.17;13.27;;;;;;;9.45;84.27;94811.91;5033334;28;20240;-77
2023/04/11 06:40:50;;;;;;;23.43;13.17;;;;;;;9.50;83.49;94803.47;5017370;28;20297;-76
2023/04/11 06:43:15;;;;;;;23.80;12.77;;;;;;;9.70;82.47;94803.50;5014581;28;20233;-77
2023/04/11 06:45:41;;;;;;;20.83;12.20;;;;;;;9.75;81.57;94807.16;5015824;28;20237;-78
2023/04/11 06:48:09;;;;;;;21.53;11.70;;;;;;;9.48;81.65;94795.81;5004597;28;20230;-77
2023/04/11 06:50:40;;;;;;;24.60;12.60;;;;;;;9.77;82.09;94799.09;5015003;28;20234;-77
2023/04/11 06:53:06;;;;;;;21.07;11.83;;;;;;;9.57;81.94;94803.47;5018272;28;20252;-77
2023/04/11 06:55:34;;;;;;;22.17;12.13;;;;;;;9.40;82.57;94792.56;4995593;28;20329;-77
2023/04/11 06:58:00;;;;;;;21.77;12.37;;;;;;;9.55;82.43;94810.72;4994639;28;20237;-75
2023/04/11 07:00:26;;;;;;;23.10;12.40;;;;;;;9.62;82.05;94804.50;4981484;28;20255;-76
2023/04/11 07:02:51;;;;;;;23.97;12.27;;;;;;;9.69;82.35;94807.13;4994030;28;20243;-78
2023/04/11 07:05:17;;;;;;;26.50;12.77;;;;;;;9.68;82.13;94810.75;4998594;28;20264;-76
2023/04/11 07:07:42;;;;;;;21.00;12.70;;;;;;;9.67;82.36;94812.56;5006723;28;20345;-76
2023/04/11 07:10:08;;;;;;;23.33;12.07;;;;;;;9.68;82.60;94819.41;5011077;28;20297;-75
2023/04/11 07:12:33;;;;;;;20.10;11.50;;;;;;;9.74;81.25;94812.59;5011765;28;20316;-78
2023/04/11 07:15:02;;;;;;;20.40;12.20;;;;;;;9.82;81.36;94805.34;4987223;28;20238;-76
2023/04/11 07:17:28;;;;;;;19.43;11.90;;;;;;;9.78;80.58;94808.56;4994689;28;20237;-74
2023/04/11 07:19:53;;;;;;;20.20;12.17;;;;;;;9.91;80.15;94798.94;5012083;28;20739;-77
2023/04/11 07:22:19;;;;;;;20.40;12.20;;;;;;;9.87;80.45;94804.75;4981707;28;20223;-75
2023/04/11 07:24:45;;;;;;;22.83;12.47;;;;;;;10.09;80.43;94798.38;5009427;28;20217;-74
2023/04/11 07:27:12;;;;;;;20.70;11.67;;;;;;;10.23;78.76;94805.25;5002705;28;20235;-75
2023/04/11 07:29:39;;;;;;;18.87;11.47;;;;;;;10.23;77.94;94801.84;4982720;28;20234;-74
2023/04/11 07:32:05;;;;;;;23.27;11.87;;;;;;;10.35;78.09;94795.81;5008467;28;20227;-75
2023/04/11 07:34:30;;;;;;;20.17;10.83;;;;;;;10.31;77.08;94784.16;5009479;28;20236;-74
2023/04/11 07:36:59;;;;;;;19.20;10.87;;;;;;;10.34;77.20;94796.03;4983273;28;20226;-75
2023/04/11 07:39:25;;;;;;;21.07;11.33;;;;;;;10.73;76.77;94802.03;5005720;28;20321;-75
2023/04/11 07:41:52;;;;;;;21.90;11.03;;;;;;;10.61;76.95;94787.97;5014551;28;20231;-75
2023/04/11 07:44:17;;;;;;;22.20;11.70;;;;;;;10.82;75.94;94792.97;4979745;28;20314;-74
2023/04/11 07:46:43;;;;;;;17.47;10.50;;;;;;;10.58;75.31;94788.34;5003180;28;20325;-74
2023/04/11 07:49:08;;;;;;;17.07;10.17;;;;;;;10.62;75.21;94788.78;4998422;28;20241;-75
2023/04/11 07:51:34;;;;;;;19.57;10.50;;;;;;;10.71;75.79;94785.75;5014778;28;20269;-74
2023/04/11 07:54:00;;;;;;;18.17;10.13;;;;;;;10.82;74.96;94785.09;4978452;28;20726;-75
2023/04/11 07:56:25;;;;;;;18.17;10.50;;;;;;;10.96;74.30;94778.06;4997305;28;20250;-74
2023/04/11 07:58:51;;;;;;;18.10;10.43;;;;;;;11.07;73.59;94779.22;4984282;28;20280;-74
2023/04/11 08:01:23;;;;;;;20.37;10.67;;;;;;;11.28;73.74;94771.91;5012635;28;20234;-76
2023/04/11 08:03:50;;;;;;;17.27;10.00;;;;;;;11.14;72.77;94769.53;5011890;28;20320;-75
2023/04/11 08:06:16;;;;;;;19.53;10.33;;;;;;;11.15;72.46;94779.00;4999808;28;20238;-74
2023/04/11 08:08:41;;;;;;;16.23;9.83;;;;;;;11.08;72.09;94765.13;5027769;28;20605;-74
2023/04/11 08:11:07;;;;;;;17.97;9.80;;;;;;;10.94;72.42;94768.78;4998667;28;20848;-74
2023/04/11 08:13:32;;;;;;;16.33;9.53;;;;;;;10.96;71.84;94754.50;4972944;28;20246;-75
2023/04/11 08:15:58;;;;;;;16.10;9.67;;;;;;;10.94;73.32;94768.78;4974487;28;21140;-75
2023/04/11 08:18:24;;;;;;;16.63;9.63;;;;;;;11.06;72.88;94762.69;4989487;28;20263;-76
2023/04/11 08:20:49;;;;;;;15.83;9.87;;;;;;;11.18;73.07;94755.81;4966106;28;20226;-73
2023/04/11 08:23:18;;;;;;;15.77;9.80;;;;;;;11.13;72.30;94765.31;4986678;28;20245;-75
2023/04/11 08:25:44;;;;;;;18.37;10.20;;;;;;;11.32;72.55;94748.72;4985188;28;21018;-74
2023/04/11 08:28:10;;;;;;;15.10;9.60;;;;;;;11.23;72.64;94739.47;4997097;28;20312;-74
2023/04/11 08:30:36;;;;;;;15.80;9.67;;;;;;;11.24;72.25;94743.72;4977832;28;20289;-74
2023/04/11 08:33:01;;;;;;;17.97;9.97;;;;;;;11.22;72.05;94737.88;4992171;28;20283;-74
2023/04/11 08:35:27;;;;;;;14.90;9.53;;;;;;;11.13;72.03;94739.13;5009488;28;20254;-76
2023/04/11 08:37:53;;;;;;;14.70;9.10;;;;;;;11.19;71.30;94733.84;4975704;28;20236;-75
2023/04/11 08:40:18;;;;;;;15.27;8.87;;;;;;;11.10;71.15;94734.28;4967357;28;20228;-74
2023/04/11 08:42:44;;;;;;;15.23;9.50;;;;;;;11.42;70.44;94742.00;4981726;28;20690;-76
2023/04/11 08:45:10;;;;;;;16.47;9.33;;;;;;;11.44;70.21;94728.69;5025138;28;20239;-75
2023/04/11 08:47:36;;;;;;;13.83;8.30;;;;;;;11.39;69.44;94725.91;4995492;28;20259;-75
2023/04/11 08:50:02;;;;;;;14.53;8.53;;;;;;;11.38;69.72;94719.88;4987301;28;20222;-75
2023/04/11 08:52:28;;;;;;;17.20;8.87;;;;;;;11.51;69.23;94717.16;4994356;28;20238;-75
2023/04/11 08:54:54;;;;;;;17.20;8.63;;;;;;;11.57;69.23;94722.56;4985196;28;20323;-75
2023/04/11 08:57:31;;;;;;;14.57;8.87;;;;;;;12.12;68.06;94719.22;5017050;28;20291;-76
2023/04/11 09:00:17;;;;;;;14.83;8.40;;;;;;;12.17;68.18;94716.75;5037856;28;20240;-75
2023/04/11 09:03:16;;;;;;;14.47;8.37;;;;;;;12.05;68.39;94708.78;5012037;28;20234;-75
2023/04/11 09:05:47;;;;;;;14.20;8.23;;;;;;;12.08;68.41;94710.19;5012515;28;20230;-74
2023/04/11 09:08:13;;;;;;;13.73;8.63;;;;;;;12.30;66.44;94711.41;5012450;28;20225;-74
2023/04/11 09:10:40;;;;;;;13.97;8.80;;;;;;;12.84;65.30;94713.31;5032794;28;20291;-75
2023/04/11 09:13:24;;;;;;;13.77;8.83;;;;;;;12.79;64.80;94703.47;5015480;28;20233;-74
2023/04/11 09:16:07;;;;;;;15.10;8.77;;;;;;;12.78;63.74;94701.03;5029513;28;20234;-74
2023/04/11 09:18:34;;;;;;;15.03;9.60;;;;;;;12.58;65.13;94682.09;5016710;28;20244;-74
2023/04/11 09:21:03;;;;;;;13.73;8.73;;;;;;;12.33;64.97;94681.28;5030715;28;20683;-74
2023/04/11 09:23:29;;;;;;;12.77;8.23;;;;;;;12.24;64.44;94680.78;5044225;28;20265;-75
2023/04/11 09:25:55;;;;;;;13.43;8.70;;;;;;;12.51;65.44;94689.22;5001546;28;20623;-74
2023/04/11 09:28:20;;;;;;;14.70;8.83;;;;;;;12.32;65.61;94684.97;5013308;28;20230;-74
2023/04/11 09:30:55;;;;;;;14.70;8.93;;;;;;;12.52;64.87;94678.50;5020308;28;20340;-74
2023/04/11 09:33:22;;;;;;;14.57;9.37;;;;;;;12.55;64.89;94677.25;5024613;28;20695;-74
2023/04/11 09:35:52;;;;;;;13.37;8.93;;;;;;;12.51;64.81;94682.16;5036692;28;20295;-73
2023/04/11 09:38:33;;;;;;;14.60;9.23;;;;;;;12.21;65.54;94668.09;5034386;28;20908;-75
2023/04/11 09:41:02;;;;;;;16.27;9.37;;;;;;;12.08;65.82;94666.38;5000763;28;20595;-75
2023/04/11 09:43:50;;;;;;;15.23;9.40;;;;;;;12.06;66.08;94659.75;5023219;28;20746;-75
2023/04/11 09:46:17;;;;;;;13.73;9.37;;;;;;;11.96;65.95;94662.06;5019117;28;24860;-74
2023/04/11 09:48:43;;;;;;;16.70;10.03;;;;;;;11.98;66.71;94647.72;5018133;28;20230;-75
2023/04/11 09:51:08;;;;;;;16.30;9.90;;;;;;;12.06;66.13;94649.28;5022187;28;20221;-74
2023/04/11 09:53:35;;;;;;;16.60;10.00;;;;;;;11.99;66.62;94654.53;5019736;28;20241;-74
2023/04/11 09:56:00;;;;;;;18.70;10.07;;;;;;;11.89;66.51;94643.72;5004195;28;20226;-75
2023/04/11 09:58:30;;;;;;;17.70;9.93;;;;;;;11.91;66.70;94641.72;5018584;28;20240;-75
2023/04/11 10:00:58;;;;;;;16.07;9.50;;;;;;;11.84;66.74;94640.97;5018041;28;20315;-74
2023/04/11 10:03:25;;;;;;;14.77;9.70;;;;;;;11.97;66.20;94637.41;5035022;28;20288;-74
2023/04/11 10:05:52;;;;;;;15.77;9.67;;;;;;;12.02;65.74;94635.75;5033093;28;20233;-73
2023/04/11 10:08:21;;;;;;;14.73;9.13;;;;;;;12.13;64.28;94642.13;5019514;28;20236;-74
2023/04/11 10:10:47;;;;;;;14.47;9.47;;;;;;;12.27;64.33;94633.13;5034362;28;20229;-74
2023/04/11 10:13:34;;;;;;;15.03;9.83;;;;;;;12.57;63.60;94634.03;5035475;28;20714;-75
2023/04/11 10:16:12;;;;;;;16.07;10.03;;;;;;;12.80;63.84;94628.91;5035628;28;20264;-75
2023/04/11 10:18:49;;;;;;;15.47;9.73;;;;;;;13.03;61.61;94627.44;5033441;28;20818;-75
2023/04/11 10:21:33;;;;;;;17.63;9.23;;;;;;;13.13;61.91;94622.47;5035559;28;21035;-74
2023/04/11 10:24:19;;;;;;;14.57;8.87;;;;;;;12.91;60.65;94624.75;5035718;28;20707;-74
2023/04/11 10:26:58;;;;;;;13.53;8.73;;;;;;;12.73;60.71;94622.13;5033357;28;20230;-75
2023/04/11 10:29:32;;;;;;;15.73;9.17;;;;;;;12.75;61.07;94601.72;5026227;28;20228;-75
2023/04/11 10:32:18;;;;;;;16.93;9.80;;;;;;;12.96;61.61;94603.88;5035813;28;20232;-75
2023/04/11 10:34:49;;;;;;;16.77;9.83;;;;;;;13.13;62.16;94588.31;5032739;28;20230;-74
2023/04/11 10:37:15;;;;;;;17.80;10.17;;;;;;;12.84;61.86;94593.31;5031265;28;20776;-73
2023/04/11 10:39:50;;;;;;;14.53;9.13;;;;;;;12.72;61.48;94589.81;5025843;28;20249;-73
2023/04/11 10:42:30;;;;;;;15.33;8.97;;;;;;;12.83;61.40;94596.16;5031762;28;20620;-76
2023/04/11 10:45:15;;;;;;;14.23;9.00;;;;;;;13.06;59.73;94579.72;5033031;28;20323;-74
2023/04/11 10:47:41;;;;;;;14.40;9.30;;;;;;;13.70;59.08;94579.78;5034616;28;20300;-74
2023/04/11 10:50:27;;;;;;;15.97;9.70;;;;;;;13.56;58.68;94569.69;4999389;28;20729;-74
2023/04/11 10:53:01;;;;;;;14.03;9.20;;;;;;;13.19;58.98;94574.28;5032593;28;20295;-75
2023/04/11 10:55:28;;;;;;;13.90;8.50;;;;;;;13.52;57.58;94577.22;5036206;28;20232;-75
2023/04/11 10:58:07;;;;;;;15.60;8.47;;;;;;;13.72;56.68;94580.34;5015447;28;20268;-75
2023/04/11 11:00:48;;;;;;;14.07;9.07;;;;;;;13.83;56.47;94562.97;5029843;28;20233;-75
2023/04/11 11:03:14;;;;;;;15.67;9.07;;;;;;;14.29;57.12;94565.59;5029547;28;20238;-74
2023/04/11 11:05:40;;;;;;;13.50;8.63;;;;;;;14.50;54.72;94546.59;5016287;28;20619;-74
2023/04/11 11:08:06;;;;;;;12.67;8.30;;;;;;;14.80;52.84;94549.03;5018356;28;20312;-76
2023/04/11 11:10:39;;;;;;;12.60;8.10;;;;;;;14.52;52.63;94541.13;5021229;28;20334;-73
2023/04/11 11:13:05;;;;;;;12.13;8.00;;;;;;;13.86;54.72;94549.38;5025861;28;20794;-74
2023/04/11 11:15:36;;;;;;;15.20;8.47;;;;;;;13.47;56.02;94548.19;5034151;28;20229;-74
2023/04/11 11:18:06;;;;;;;13.23;8.07;;;;;;;13.25;55.80;94550.56;5020787;28;20230;-73
2023/04/11 11:20:31;;;;;;;14.57;8.67;;;;;;;13.38;57.12;94542.44;5031947;28;20233;-75
2023/04/11 11:23:01;;;;;;;14.13;9.00;;;;;;;13.48;57.00;94536.66;5006524;28;20995;-75
2023/04/11 11:25:26;;;;;;;13.97;8.73;;;;;;;13.37;56.62;94546.09;5016235;28;20283;-76